Hlavní strana
METAR-TAF:

METAR-TAF

Letiště :

Vladikavkaz, Rusko

zeměpisná šířka: 43-12-18N, zeměpisná délka: 044-36-24E, výška: 510 m

Aktuální stav počasí

Zpráva byla vytvořena před 33 minutami, v 12:00 UTC
Teplota 21°C
Vlhkost vzduchu 78%
Tlak 1013 hPa
Viditelnost 10 km a více
Oblačno až skoro zataženo ve výšce 4100 ft

METAR: URMO 041200Z /////MPS 9999 BKN041 21/17 Q1013 R09/010070 NOSIG RMK QFE716/0955

Čas: 15:33 (12:33 UTC)

Předpověď počasí

Zpráva byla vytvořena před 1 hodinou a 33 minutami, v 11:00 UTC
Předpověď platná od 04 v 12 UTC do 04 v 21 UTC
Východní vítr 6 kt s nárazy do 16 kt
Viditelnost 10 km a více
Oblačno až skoro zataženo ve výšce 3000 ft
Dočasný
od 04 v 12 UTC do 04 v 21 UTC
vítr z různých směrů 14 kt s nárazy do 27 kt
Viditelnost: 5000 m
Polojasno ve výšce 1100 ft
Oblačno až skoro zataženo ve výšce 3000 ft, Cumulonimbus.
bouřka, slabý déšť

TAF: URMO 041100Z 0412/0421 10003G08MPS 9999 BKN030 TEMPO 0412/0421 VRB07G14MPS 5000 -TSRA SCT011 BKN030CB

Stav a předpovědi počasí z více než 4 000 letišť (zprávy METAR a TAF).

Červené a žluté tečky na mapě představují dostupné meteorologické stanice.

Když kurzor umístíte na tečku, zobrazí se název stanice.

Pak kliknutím zobrazíte stav a předpověď počasí.

Chcete-li změnit mapu, kliknutím na zelené tlačítko se znaménkem +mapu přiblížíte, kliknutím na zelené tlačítko se znaménkem – mapu oddálíte a kliknutím na zelené šipky přejdete na sousední mapy.


METAR-TAF: